Time;durP1;ratioP1;P1;durP2;ratioP2;P2;SDS_P1;SDS_P2;PMS_P1;PMS_P2;Temp;Humidity;BMP_temperature;BMP_pressure;BME280_temperature;BME280_humidity;BME280_pressure;Samples;Min_cycle;Max_cycle;Signal;HPM_P1;HPM_P2
2022/02/11 00:00:53;;;;;;;4.30;1.67;;;4.20;99.90;;;;;;5084775;28;20028;-71
2022/02/11 00:08:34;;;;;;;15.13;2.42;;;4.10;99.90;;;;;;5084536;28;20496;-72
2022/02/11 00:11:00;;;;;;;3.30;1.38;;;4.10;99.90;;;;;;5084546;28;20025;-71
2022/02/11 00:13:27;;;;;;;11.30;2.90;;;4.00;99.90;;;;;;5084663;28;20051;-72
2022/02/11 00:15:54;;;;;;;8.40;0.95;;;4.00;99.90;;;;;;5084612;28;20091;-72
2022/02/11 00:18:22;;;;;;;14.18;2.53;;;4.00;99.90;;;;;;5066715;28;20386;-72
2022/02/11 00:20:51;;;;;;;11.73;2.92;;;3.90;99.90;;;;;;5084396;28;20060;-73
2022/02/11 00:23:19;;;;;;;3.60;0.85;;;3.90;99.90;;;;;;5084727;28;20468;-72
2022/02/11 00:25:53;;;;;;;6.15;1.52;;;3.90;99.90;;;;;;5084782;28;20053;-73
2022/02/11 00:33:36;;;;;;;2.70;1.52;;;3.90;99.90;;;;;;5088228;28;20565;-72
2022/02/11 00:36:05;;;;;;;14.52;1.80;;;3.80;99.90;;;;;;5086662;28;20074;-72
2022/02/11 01:02:30;;;;;;;13.02;2.45;;;3.70;99.90;;;;;;5073016;28;19958;-72
2022/02/11 01:04:54;;;;;;;1.83;0.80;;;3.70;99.90;;;;;;5067361;28;20032;-72
2022/02/11 01:07:21;;;;;;;3.25;0.60;;;3.70;99.90;;;;;;5067426;28;20024;-72
2022/02/11 01:09:47;;;;;;;11.63;1.65;;;3.70;99.90;;;;;;5067630;28;20032;-73
2022/02/11 01:12:13;;;;;;;2.40;1.42;;;3.70;99.90;;;;;;5067652;28;20033;-70
2022/02/11 01:14:51;;;;;;;11.80;1.27;;;3.70;99.90;;;;;;5067498;28;20021;-71
2022/02/11 01:17:28;;;;;;;3.92;1.00;;;3.70;99.90;;;;;;5066241;28;20461;-72
2022/02/11 01:20:00;;;;;;;7.10;1.05;;;3.70;99.90;;;;;;5067401;28;20025;-73
2022/02/11 01:22:44;;;;;;;7.45;1.08;;;3.70;99.90;;;;;;5067079;28;20460;-71
2022/02/11 01:27:56;;;;;;;4.63;1.08;;;3.70;99.90;;;;;;5067077;28;20071;-72
2022/02/11 01:30:49;;;;;;;1.85;0.88;;;3.70;99.90;;;;;;5067141;28;20021;-73
2022/02/11 01:51:50;;;;;;;14.73;2.67;;;3.60;99.90;;;;;;5066731;28;20051;-72
2022/02/11 01:57:00;;;;;;;6.07;1.33;;;3.50;99.90;;;;;;5066704;28;20029;-72
2022/02/11 02:13:26;;;;;;;12.68;2.17;;;3.50;99.90;;;;;;5066522;28;20051;-72
2022/02/11 02:23:54;;;;;;;3.78;1.48;;;3.50;99.90;;;;;;5073398;28;20104;-73
2022/02/11 02:26:35;;;;;;;6.35;1.50;;;3.40;99.90;;;;;;5065926;28;20033;-72
2022/02/11 02:58:16;;;;;;;9.00;2.15;;;3.40;99.90;;;;;;5064783;28;20043;-72
2022/02/11 03:15:00;;;;;;;6.15;1.80;;;3.40;99.90;;;;;;5064425;28;20039;-74
2022/02/11 03:31:40;;;;;;;4.80;1.67;;;3.30;99.90;;;;;;5064065;28;20040;-72
2022/02/11 04:56:27;;;;;;;1.65;1.30;;;3.70;99.90;;;;;;5068076;28;20036;-75
2022/02/11 05:01:40;;;;;;;;;;;3.50;99.90;;;;;;5067946;28;20060;-75
2022/02/11 05:04:06;;;;;;;6.03;2.13;;;3.30;99.90;;;;;;5086871;28;19920;-75
2022/02/11 05:06:31;;;;;;;7.40;1.73;;;3.10;99.90;;;;;;5086393;28;20028;-81
2022/02/11 05:08:59;;;;;;;2.70;1.42;;;3.10;99.90;;;;;;5086325;28;20056;-81
2022/02/11 05:11:25;;;;;;;5.00;2.25;;;3.00;99.90;;;;;;5087275;28;20039;-79
2022/02/11 05:13:50;;;;;;;3.28;1.88;;;3.00;99.90;;;;;;5086148;28;20021;-82
2022/02/11 05:16:17;;;;;;;5.05;2.15;;;2.90;99.90;;;;;;5087418;28;20063;-80
2022/02/11 05:18:42;;;;;;;9.27;2.83;;;2.90;99.90;;;;;;5086226;28;20048;-80
2022/02/11 05:21:08;;;;;;;12.38;2.88;;;2.80;99.90;;;;;;5087253;28;20045;-78
2022/02/11 05:23:33;;;;;;;10.18;3.55;;;2.80;99.90;;;;;;5069412;28;20020;-79
2022/02/11 05:25:59;;;;;;;15.95;2.88;;;2.80;99.90;;;;;;5087193;28;20074;-79
2022/02/11 05:28:24;;;;;;;5.13;2.50;;;2.70;99.90;;;;;;5069064;28;20024;-84
2022/02/11 05:30:51;;;;;;;5.90;2.90;;;2.70;99.90;;;;;;5087061;28;20024;-78
2022/02/11 05:33:17;;;;;;;6.35;2.40;;;2.70;99.90;;;;;;5087302;28;20112;-81
2022/02/11 05:35:42;;;;;;;14.30;3.55;;;2.80;99.90;;;;;;5087266;28;20401;-80
2022/02/11 05:38:08;;;;;;;7.43;3.05;;;2.80;99.90;;;;;;5085711;28;20024;-78
2022/02/11 05:40:34;;;;;;;8.55;3.25;;;2.80;99.90;;;;;;5086943;28;20029;-79
2022/02/11 05:43:00;;;;;;;11.70;3.53;;;2.90;99.90;;;;;;5085492;28;20059;-78
2022/02/11 05:45:25;;;;;;;7.03;3.28;;;3.00;99.90;;;;;;5068969;28;20052;-81
2022/02/11 05:47:51;;;;;;;10.32;2.92;;;2.90;99.90;;;;;;5085542;28;20029;-82
2022/02/11 05:50:17;;;;;;;7.40;3.05;;;2.90;99.90;;;;;;5087116;28;20024;-82
2022/02/11 05:52:43;;;;;;;17.15;4.20;;;2.90;99.90;;;;;;5068906;28;20028;-79
2022/02/11 05:55:09;;;;;;;8.40;3.70;;;2.90;99.90;;;;;;5086243;28;20127;-78
2022/02/11 05:57:34;;;;;;;12.48;3.55;;;3.00;99.90;;;;;;5085094;28;20021;-76
2022/02/11 06:00:02;;;;;;;14.52;3.80;;;3.00;99.90;;;;;;5086470;28;20456;-79
2022/02/11 06:02:27;;;;;;;9.00;4.47;;;3.00;99.90;;;;;;5086563;28;20028;-78
2022/02/11 06:04:53;;;;;;;18.25;4.82;;;3.00;99.90;;;;;;5068298;28;20029;-79
2022/02/11 06:07:18;;;;;;;11.32;4.22;;;3.00;99.90;;;;;;5086468;28;20025;-78
2022/02/11 06:09:44;;;;;;;10.15;3.80;;;3.00;99.90;;;;;;5086539;28;20032;-78
2022/02/11 06:12:10;;;;;;;8.75;3.47;;;3.00;99.90;;;;;;5084939;28;20024;-81
2022/02/11 06:14:38;;;;;;;14.57;4.68;;;3.10;99.90;;;;;;5079936;28;20113;-79
2022/02/11 06:17:06;;;;;;;14.27;4.47;;;3.10;99.90;;;;;;5064873;28;20468;-78
2022/02/11 06:19:32;;;;;;;14.05;4.75;;;3.10;99.90;;;;;;5052611;28;20032;-79
2022/02/11 06:21:57;;;;;;;15.23;4.72;;;3.10;99.90;;;;;;5051895;28;20036;-79
2022/02/11 06:24:23;;;;;;;8.63;4.38;;;3.10;99.90;;;;;;5085298;28;20024;-78
2022/02/11 06:26:48;;;;;;;11.88;3.92;;;3.20;99.90;;;;;;5067928;28;20036;-78
2022/02/11 06:29:14;;;;;;;9.30;4.30;;;3.20;99.90;;;;;;5086253;28;20058;-79
2022/02/11 06:31:40;;;;;;;13.18;4.15;;;3.20;99.90;;;;;;5068071;28;20024;-78
2022/02/11 06:34:08;;;;;;;15.75;3.85;;;3.20;99.90;;;;;;5085912;28;20151;-77
2022/02/11 06:36:35;;;;;;;13.80;5.15;;;3.30;99.90;;;;;;5067848;28;20025;-77
2022/02/11 06:39:01;;;;;;;9.65;3.95;;;3.30;99.90;;;;;;5083658;28;20033;-77
2022/02/11 06:41:26;;;;;;;11.65;3.60;;;3.30;99.90;;;;;;5085586;28;20085;-77
2022/02/11 06:43:53;;;;;;;9.70;2.67;;;3.40;99.90;;;;;;5102314;28;20028;-80
2022/02/11 06:46:21;;;;;;;5.63;2.78;;;3.40;99.90;;;;;;5082016;28;20020;-82
2022/02/11 06:48:48;;;;;;;11.50;3.70;;;3.50;99.90;;;;;;5066308;28;20455;-78
2022/02/11 06:51:14;;;;;;;7.70;3.17;;;3.50;99.90;;;;;;5073511;28;20051;-77
2022/02/11 06:53:41;;;;;;;5.50;2.97;;;3.50;99.90;;;;;;5065191;28;20024;-74
2022/02/11 06:56:07;;;;;;;11.65;2.50;;;3.60;99.90;;;;;;5064889;28;20036;-77
2022/02/11 06:58:32;;;;;;;13.57;3.15;;;3.60;99.90;;;;;;5085538;28;20017;-75
2022/02/11 07:00:58;;;;;;;3.38;1.63;;;3.70;99.90;;;;;;5085289;28;20056;-76
2022/02/11 07:03:24;;;;;;;12.68;2.20;;;3.70;99.90;;;;;;5064886;28;20035;-75
2022/02/11 07:05:51;;;;;;;2.90;1.58;;;3.70;99.90;;;;;;5084896;28;20087;-75
2022/02/11 07:08:19;;;;;;;5.07;1.67;;;3.70;99.90;;;;;;5065723;28;20504;-77
2022/02/11 07:10:45;;;;;;;7.57;1.58;;;3.70;99.90;;;;;;5056110;28;20032;-73
2022/02/11 07:13:13;;;;;;;14.10;2.17;;;3.80;99.90;;;;;;5060341;28;20126;-76
2022/02/11 07:15:41;;;;;;;4.70;1.92;;;3.80;99.90;;;;;;5083307;28;20029;-73
2022/02/11 07:18:07;;;;;;;2.70;1.73;;;3.80;99.90;;;;;;5083915;28;20035;-73
2022/02/11 07:20:33;;;;;;;4.63;1.98;;;3.90;99.90;;;;;;5067364;28;20084;-73
2022/02/11 07:22:58;;;;;;;4.78;1.13;;;3.90;99.90;;;;;;5067631;28;20037;-76
2022/02/11 07:25:24;;;;;;;3.00;1.05;;;3.90;99.90;;;;;;5080397;28;20039;-76
2022/02/11 07:27:50;;;;;;;3.70;1.35;;;3.90;99.90;;;;;;5096821;28;20028;-76
2022/02/11 07:30:17;;;;;;;2.95;1.17;;;4.10;99.90;;;;;;5077627;28;20054;-73
2022/02/11 07:32:43;;;;;;;2.22;1.23;;;3.90;99.90;;;;;;5075671;28;20472;-75
2022/02/11 07:35:08;;;;;;;4.07;1.40;;;4.00;99.90;;;;;;5065787;28;20029;-78
2022/02/11 07:37:35;;;;;;;2.13;1.10;;;4.00;99.90;;;;;;5073709;28;20036;-76
2022/02/11 07:40:02;;;;;;;4.63;1.05;;;4.10;99.90;;;;;;5084263;28;20033;-75
2022/02/11 07:42:29;;;;;;;2.30;1.30;;;4.00;99.90;;;;;;5085004;28;20037;-77
2022/02/11 07:44:57;;;;;;;5.40;2.13;;;4.10;99.90;;;;;;5084800;28;20032;-78
2022/02/11 07:47:24;;;;;;;2.20;1.17;;;4.10;99.90;;;;;;5078565;28;20031;-73
2022/02/11 07:49:49;;;;;;;1.38;0.93;;;4.10;99.90;;;;;;5078939;28;20035;-74
2022/02/11 07:52:21;;;;;;;2.35;1.15;;;4.20;99.90;;;;;;5075897;28;20388;-77
2022/02/11 07:54:48;;;;;;;4.53;0.88;;;4.20;99.90;;;;;;5062733;28;20140;-78
2022/02/11 07:57:13;;;;;;;1.90;1.17;;;4.20;99.90;;;;;;5066779;28;20062;-77
2022/02/11 07:59:39;;;;;;;2.28;1.08;;;4.30;99.90;;;;;;5063542;28;20580;-76
2022/02/11 08:02:05;;;;;;;1.13;0.80;;;4.30;99.90;;;;;;5054426;28;20424;-75
2022/02/11 08:04:32;;;;;;;6.60;1.63;;;4.30;99.90;;;;;;5067232;28;20029;-76
2022/02/11 08:06:58;;;;;;;6.07;0.75;;;4.40;99.90;;;;;;5069424;28;20013;-78
2022/02/11 08:09:24;;;;;;;6.45;1.48;;;4.50;99.90;;;;;;5090479;28;20028;-77
2022/02/11 08:11:50;;;;;;;1.45;0.63;;;4.50;99.90;;;;;;5100846;28;20032;-75
2022/02/11 08:14:23;;;;;;;2.53;1.02;;;4.50;99.90;;;;;;5047547;28;20049;-76
2022/02/11 08:16:48;;;;;;;5.37;1.73;;;4.50;99.90;;;;;;5063381;28;20040;-74
2022/02/11 08:19:15;;;;;;;0.90;0.70;;;4.60;99.90;;;;;;5066402;28;20028;-76
2022/02/11 08:21:41;;;;;;;5.43;1.00;;;4.60;99.90;;;;;;5066074;28;20108;-75
2022/02/11 08:24:07;;;;;;;4.72;0.88;;;4.70;99.90;;;;;;5072786;28;20021;-75
2022/02/11 08:26:32;;;;;;;0.63;0.40;;;4.70;99.90;;;;;;5060001;28;20025;-74
2022/02/11 08:28:58;;;;;;;0.90;0.60;;;4.80;99.90;;;;;;5064345;28;20052;-75
2022/02/11 08:31:25;;;;;;;3.35;0.65;;;4.80;99.90;;;;;;5081692;28;20032;-75
2022/02/11 08:33:51;;;;;;;0.30;0.28;;;4.90;99.90;;;;;;5072615;28;20032;-74
2022/02/11 08:36:19;;;;;;;1.02;0.55;;;5.10;99.90;;;;;;5071375;28;20017;-73
2022/02/11 08:38:45;;;;;;;1.08;0.30;;;5.30;99.90;;;;;;5066797;28;20033;-75
2022/02/11 08:41:10;;;;;;;1.40;0.93;;;5.20;99.90;;;;;;5078928;28;20041;-75
2022/02/11 08:43:36;;;;;;;2.72;0.63;;;5.20;99.90;;;;;;5065390;28;20029;-76
2022/02/11 08:46:03;;;;;;;4.60;0.85;;;5.20;99.90;;;;;;5074679;28;20029;-74
2022/02/11 08:48:29;;;;;;;10.60;0.93;;;5.20;99.90;;;;;;5075635;28;20036;-75
2022/02/11 08:50:54;;;;;;;1.65;1.05;;;5.20;99.90;;;;;;5094368;28;20024;-76
2022/02/11 08:53:22;;;;;;;10.35;0.93;;;5.20;99.90;;;;;;5087783;28;20035;-77
2022/02/11 08:55:49;;;;;;;6.03;1.02;;;5.20;99.90;;;;;;5086622;28;20056;-76
2022/02/11 08:58:19;;;;;;;0.25;0.17;;;5.30;99.90;;;;;;5086573;28;20078;-76
2022/02/11 09:00:47;;;;;;;8.05;1.30;;;5.20;99.90;;;;;;5086323;28;20021;-75
2022/02/11 09:03:13;;;;;;;9.50;0.57;;;5.20;99.90;;;;;;5087409;28;20087;-77
2022/02/11 09:05:39;;;;;;;5.82;1.85;;;5.20;99.90;;;;;;5087765;28;20515;-76
2022/02/11 09:08:04;;;;;;;7.70;1.85;;;5.20;99.90;;;;;;5078732;28;20033;-75
2022/02/11 09:10:30;;;;;;;4.75;0.90;;;5.20;99.90;;;;;;5077188;28;20032;-76
2022/02/11 09:12:57;;;;;;;0.70;0.70;;;5.20;99.90;;;;;;5079373;28;20063;-76
2022/02/11 09:15:24;;;;;;;2.53;0.68;;;5.20;99.90;;;;;;5081654;28;20048;-75
2022/02/11 09:17:50;;;;;;;12.10;1.05;;;5.20;99.90;;;;;;5068602;28;20113;-76
2022/02/11 09:20:17;;;;;;;5.57;1.17;;;5.30;99.90;;;;;;5082419;28;20078;-77
2022/02/11 09:22:43;;;;;;;5.85;1.63;;;5.30;99.90;;;;;;5077056;28;20041;-76
2022/02/11 09:25:12;;;;;;;2.20;0.77;;;5.40;99.90;;;;;;5067281;28;20033;-76
2022/02/11 09:27:43;;;;;;;11.63;1.10;;;5.40;99.90;;;;;;5066874;28;20036;-74
2022/02/11 09:30:23;;;;;;;1.25;0.82;;;5.40;99.90;;;;;;5081944;28;20029;-76
2022/02/11 09:32:52;;;;;;;2.85;1.50;;;5.40;99.90;;;;;;5082335;28;20085;-75
2022/02/11 09:35:21;;;;;;;10.27;1.90;;;5.40;99.90;;;;;;5066937;28;20025;-74
2022/02/11 09:37:48;;;;;;;10.95;1.38;;;5.40;99.90;;;;;;5067434;28;20041;-74
2022/02/11 09:40:16;;;;;;;7.18;2.13;;;5.40;99.90;;;;;;5064062;28;20036;-75
2022/02/11 09:42:41;;;;;;;6.78;1.63;;;5.40;99.90;;;;;;5065008;28;20040;-73
2022/02/11 09:45:09;;;;;;;6.70;1.02;;;5.40;99.90;;;;;;5094598;28;20038;-76
2022/02/11 09:47:38;;;;;;;4.25;1.70;;;5.40;99.90;;;;;;5092496;28;20606;-75
2022/02/11 09:50:05;;;;;;;4.82;0.68;;;5.30;99.90;;;;;;5069983;28;20039;-74
2022/02/11 09:52:47;;;;;;;0.82;0.63;;;5.40;99.90;;;;;;5102288;28;20063;-75
2022/02/11 09:55:32;;;;;;;2.60;1.25;;;5.30;99.90;;;;;;5098337;28;20059;-73
2022/02/11 09:58:03;;;;;;;4.95;1.73;;;5.20;99.90;;;;;;5085123;28;20024;-74
2022/02/11 10:00:29;;;;;;;2.55;1.15;;;5.30;99.90;;;;;;5104105;28;20050;-74
2022/02/11 10:03:00;;;;;;;3.03;0.93;;;5.30;99.90;;;;;;5106811;28;20044;-74
2022/02/11 10:05:30;;;;;;;0.90;0.50;;;5.20;99.90;;;;;;5100090;28;20025;-74
2022/02/11 10:07:57;;;;;;;3.65;1.40;;;5.20;99.90;;;;;;5066448;28;20078;-76
2022/02/11 10:10:42;;;;;;;4.93;1.50;;;5.20;99.90;;;;;;5066236;28;20048;-74
2022/02/11 10:13:28;;;;;;;4.13;2.05;;;5.20;99.90;;;;;;5077326;28;20020;-75
2022/02/11 10:16:08;;;;;;;3.25;1.73;;;5.20;99.90;;;;;;5058593;28;20028;-74
2022/02/11 10:18:39;;;;;;;5.32;1.92;;;5.20;99.90;;;;;;5061604;28;20039;-77
2022/02/11 10:21:08;;;;;;;2.95;1.55;;;5.10;99.90;;;;;;5087698;28;20100;-76
2022/02/11 10:23:41;;;;;;;7.78;2.00;;;5.20;99.90;;;;;;5098510;28;20017;-74
2022/02/11 10:26:15;;;;;;;3.93;2.27;;;5.00;99.90;;;;;;5068245;28;20434;-77
2022/02/11 10:28:44;;;;;;;;;;;5.00;99.90;;;;;;5104928;28;20079;-74
2022/02/11 10:31:21;;;;;;;8.88;1.52;;;4.90;99.90;;;;;;5087991;28;19908;-75
2022/02/11 10:33:58;;;;;;;4.53;1.75;;;4.90;99.90;;;;;;5106553;28;20027;-75
2022/02/11 10:36:28;;;;;;;4.38;1.65;;;4.80;99.90;;;;;;5106361;28;20047;-76
2022/02/11 10:39:22;;;;;;;3.05;2.03;;;4.80;99.90;;;;;;5106359;28;20095;-74
2022/02/11 10:41:57;;;;;;;2.90;1.63;;;4.80;99.90;;;;;;5083252;28;20044;-77
2022/02/11 10:44:36;;;;;;;3.63;1.85;;;4.80;99.90;;;;;;5072509;28;20093;-76
2022/02/11 10:47:14;;;;;;;4.07;1.63;;;4.90;99.90;;;;;;5046624;28;20101;-75
2022/02/11 10:49:48;;;;;;;3.42;1.75;;;4.80;99.90;;;;;;5064963;28;20104;-74
2022/02/11 10:52:18;;;;;;;;;;;4.70;99.90;;;;;;5074933;28;20036;-75
2022/02/11 10:54:49;;;;;;;3.75;1.52;;;4.70;99.90;;;;;;5049931;28;19928;-76
2022/02/11 10:57:18;;;;;;;3.60;1.73;;;4.70;99.90;;;;;;5065778;28;20027;-74
2022/02/11 10:59:51;;;;;;;3.28;1.70;;;4.80;99.90;;;;;;5064850;28;20147;-75
2022/02/11 11:02:19;;;;;;;4.13;1.27;;;4.80;99.90;;;;;;5085621;28;20032;-77
2022/02/11 11:04:49;;;;;;;3.08;1.88;;;4.90;99.90;;;;;;5085823;28;20060;-76
2022/02/11 11:07:29;;;;;;;5.25;1.95;;;5.00;99.90;;;;;;5067476;28;20106;-74
2022/02/11 11:09:56;;;;;;;2.38;1.40;;;5.40;99.90;;;;;;5063679;28;20115;-74
2022/02/11 11:12:32;;;;;;;5.50;1.90;;;5.40;99.90;;;;;;5073237;28;20040;-73
2022/02/11 11:14:59;;;;;;;3.13;1.83;;;5.50;99.90;;;;;;5076303;28;20096;-76
2022/02/11 11:17:26;;;;;;;4.90;1.98;;;5.60;99.90;;;;;;5066348;28;20028;-74
2022/02/11 11:19:54;;;;;;;4.70;2.05;;;5.90;99.90;;;;;;5074589;28;20032;-77
2022/02/11 11:22:31;;;;;;;3.80;1.95;;;6.10;99.90;;;;;;5084127;28;20123;-76
2022/02/11 11:25:02;;;;;;;3.17;1.88;;;6.30;99.90;;;;;;5078615;28;20043;-74
2022/02/11 11:27:47;;;;;;;2.22;1.10;;;6.20;99.90;;;;;;5065583;28;20115;-75
2022/02/11 11:30:32;;;;;;;;;;;6.00;99.90;;;;;;5069722;28;20029;-75
2022/02/11 11:33:07;;;;;;;2.95;1.83;;;6.00;99.90;;;;;;5085341;28;19911;-75
2022/02/11 11:35:40;;;;;;;2.70;1.80;;;5.90;99.90;;;;;;5075385;28;20033;-73
2022/02/11 11:38:15;;;;;;;3.22;1.48;;;5.90;99.90;;;;;;5079278;28;20020;-73
2022/02/11 11:40:54;;;;;;;3.50;1.65;;;5.80;99.90;;;;;;5065222;28;20024;-75
2022/02/11 11:43:36;;;;;;;2.92;1.42;;;5.70;99.90;;;;;;5064924;28;20064;-75
2022/02/11 11:46:21;;;;;;;3.15;1.30;;;5.70;99.90;;;;;;5055622;28;20032;-76
2022/02/11 11:48:50;;;;;;;3.75;1.42;;;5.70;99.90;;;;;;5065052;28;20059;-76
2022/02/11 11:51:16;;;;;;;2.78;1.50;;;5.60;99.90;;;;;;5047140;28;20033;-74
2022/02/11 11:53:41;;;;;;;1.30;1.00;;;5.60;99.90;;;;;;5064684;28;20025;-73
2022/02/11 11:56:35;;;;;;;4.13;1.67;;;5.50;99.90;;;;;;5046890;28;20029;-73
2022/02/11 11:59:20;;;;;;;7.63;1.13;;;5.40;99.90;;;;;;5054424;28;20033;-76
2022/02/11 12:01:56;;;;;;;3.03;0.85;;;5.30;99.90;;;;;;5070466;28;20055;-74
2022/02/11 12:04:29;;;;;;;2.70;0.70;;;5.30;99.90;;;;;;5085061;28;20064;-75
2022/02/11 12:06:57;;;;;;;1.33;0.80;;;5.20;99.90;;;;;;5083967;28;20024;-75
2022/02/11 12:09:24;;;;;;;1.92;0.80;;;5.20;99.90;;;;;;5066838;28;20055;-75
2022/02/11 12:12:02;;;;;;;2.83;1.02;;;5.10;99.90;;;;;;5083106;28;20346;-74
2022/02/11 12:14:30;;;;;;;0.65;0.50;;;5.20;99.90;;;;;;5084445;28;20020;-74
2022/02/11 12:16:57;;;;;;;1.02;0.38;;;5.20;99.90;;;;;;5073545;28;20132;-74
2022/02/11 12:19:27;;;;;;;0.70;0.40;;;5.40;99.90;;;;;;5069455;28;20029;-77
2022/02/11 12:21:54;;;;;;;4.28;0.50;;;5.30;99.90;;;;;;5072389;28;20167;-76
2022/02/11 12:27:21;;;;;;;3.00;0.40;;;5.40;99.90;;;;;;5077679;28;20051;-76
2022/02/11 12:29:49;;;;;;;1.13;0.30;;;5.70;99.90;;;;;;5082028;28;20423;-77
2022/02/11 12:32:16;;;;;;;1.42;0.22;;;6.10;99.90;;;;;;5088461;28;20032;-74
2022/02/11 12:34:51;;;;;;;8.60;1.02;;;6.10;99.90;;;;;;5088279;28;20021;-73
2022/02/11 12:37:18;;;;;;;4.93;0.70;;;6.00;99.90;;;;;;5076137;28;20039;-74
2022/02/11 12:39:44;;;;;;;1.15;0.80;;;5.90;99.90;;;;;;5080080;28;20028;-75
2022/02/11 12:42:10;;;;;;;3.40;0.95;;;5.90;99.90;;;;;;5081308;28;20353;-74
2022/02/11 12:44:36;;;;;;;2.40;0.75;;;6.00;99.90;;;;;;5088453;28;20029;-73
2022/02/11 12:47:02;;;;;;;12.43;0.90;;;6.00;99.90;;;;;;5088359;28;20036;-75
2022/02/11 12:49:33;;;;;;;9.25;0.50;;;6.00;99.90;;;;;;5064158;28;20096;-75
2022/02/11 12:51:59;;;;;;;2.92;0.70;;;5.90;99.90;;;;;;5085651;28;20051;-76
2022/02/11 12:54:25;;;;;;;2.15;0.80;;;6.00;99.90;;;;;;5067987;28;20053;-75
2022/02/11 12:57:01;;;;;;;15.48;1.08;;;6.00;99.90;;;;;;5082891;28;20021;-74
2022/02/11 12:59:27;;;;;;;7.15;0.80;;;6.20;99.90;;;;;;5087758;28;20495;-74
2022/02/11 13:01:53;;;;;;;10.05;1.08;;;6.20;99.90;;;;;;5071260;28;20100;-76
2022/02/11 13:04:21;;;;;;;2.83;0.68;;;6.20;99.90;;;;;;5086939;28;20024;-76
2022/02/11 13:06:48;;;;;;;1.27;0.65;;;6.10;99.90;;;;;;5085815;28;20043;-75
2022/02/11 13:09:16;;;;;;;4.90;0.80;;;6.20;99.90;;;;;;5068583;28;20135;-73
2022/02/11 13:11:43;;;;;;;6.15;1.05;;;6.30;99.90;;;;;;5086966;28;20024;-76
2022/02/11 13:14:09;;;;;;;2.42;0.88;;;6.30;99.90;;;;;;5086718;28;20023;-75
2022/02/11 13:16:43;;;;;;;5.32;1.15;;;6.50;99.90;;;;;;5069095;28;20029;-77
2022/02/11 13:19:15;;;;;;;2.17;1.02;;;6.90;99.90;;;;;;5067471;28;20100;-75
2022/02/11 13:21:41;;;;;;;4.78;1.30;;;6.90;99.90;;;;;;5048505;28;20064;-76
2022/02/11 13:24:07;;;;;;;11.82;1.33;;;7.30;99.90;;;;;;5066671;28;20036;-74
2022/02/11 13:26:33;;;;;;;4.32;0.95;;;8.00;99.90;;;;;;5066683;28;20020;-73
2022/02/11 13:28:59;;;;;;;5.18;1.10;;;8.40;99.90;;;;;;5076805;28;20062;-75
2022/02/11 13:31:24;;;;;;;9.30;1.05;;;8.80;99.90;;;;;;5066770;28;20112;-74
2022/02/11 13:34:03;;;;;;;13.52;1.13;;;8.80;99.90;;;;;;5067463;28;20099;-75
2022/02/11 13:36:29;;;;;;;6.22;1.25;;;8.50;99.90;;;;;;5048399;28;20470;-75
2022/02/11 13:38:57;;;;;;;2.65;0.77;;;8.20;99.90;;;;;;5066331;28;20020;-76
2022/02/11 13:41:32;;;;;;;1.00;0.45;;;7.90;99.90;;;;;;5048495;28;20037;-73
2022/02/11 13:44:06;;;;;;;3.25;1.30;;;7.70;99.90;;;;;;5066635;28;20021;-74
2022/02/11 13:46:33;;;;;;;4.75;0.82;;;7.80;99.90;;;;;;5066330;28;20021;-75
2022/02/11 13:49:07;;;;;;;3.13;1.30;;;8.30;99.90;;;;;;5066598;28;20035;-73
2022/02/11 13:51:33;;;;;;;16.58;1.23;;;9.10;99.90;;;;;;5068335;28;20387;-74
2022/02/11 13:54:12;;;;;;;2.00;0.75;;;9.50;99.90;;;;;;5063427;28;20082;-76
2022/02/11 13:56:40;;;;;;;1.13;0.63;;;9.90;99.90;;;;;;5064572;28;20171;-75
2022/02/11 13:59:07;;;;;;;3.55;1.10;;;10.10;99.90;;;;;;5054332;28;20381;-73
2022/02/11 14:01:34;;;;;;;3.47;0.75;;;10.10;99.90;;;;;;5085827;28;20435;-76
2022/02/11 14:04:03;;;;;;;4.32;1.05;;;10.40;99.90;;;;;;5086033;28;20484;-74
2022/02/11 14:06:36;;;;;;;17.83;2.08;;;10.70;99.90;;;;;;5086030;28;20028;-74
2022/02/11 14:09:06;;;;;;;5.40;0.85;;;10.90;99.90;;;;;;5086028;28;20036;-75
2022/02/11 14:11:37;;;;;;;2.28;0.75;;;11.00;99.90;;;;;;5086018;28;20025;-73
2022/02/11 14:14:21;;;;;;;5.45;0.88;;;11.40;99.90;;;;;;5071895;28;20024;-74
2022/02/11 14:16:49;;;;;;;1.15;0.43;;;11.40;99.90;;;;;;5085377;28;20051;-74
2022/02/11 14:19:24;;;;;;;16.83;1.08;;;11.30;99.90;;;;;;5084010;28;20024;-72
2022/02/11 14:21:54;;;;;;;0.60;0.55;;;11.40;99.90;;;;;;5080545;28;20051;-74
2022/02/11 14:24:21;;;;;;;1.85;0.50;;;11.30;99.90;;;;;;5066466;28;20037;-74
2022/02/11 14:26:49;;;;;;;5.00;0.90;;;11.30;99.90;;;;;;5073946;28;20085;-77
2022/02/11 14:29:15;;;;;;;2.13;0.70;;;11.40;99.90;;;;;;5084416;28;20031;-73
2022/02/11 14:31:45;;;;;;;0.60;0.45;;;11.60;99.90;;;;;;5064206;28;20051;-76
2022/02/11 14:34:13;;;;;;;1.67;0.47;;;11.40;99.90;;;;;;5066260;28;20029;-74
2022/02/11 14:36:42;;;;;;;3.75;0.73;;;11.50;99.90;;;;;;5065959;28;20067;-75
2022/02/11 14:39:09;;;;;;;0.43;0.32;;;11.40;99.90;;;;;;5047934;28;20033;-73
2022/02/11 14:41:47;;;;;;;15.43;1.00;;;11.30;99.90;;;;;;5054374;28;20036;-75
2022/02/11 14:44:15;;;;;;;4.88;0.77;;;11.00;99.90;;;;;;5070421;28;20045;-75
2022/02/11 14:46:41;;;;;;;8.60;1.00;;;10.80;99.90;;;;;;5065476;28;20025;-74
2022/02/11 14:49:06;;;;;;;0.95;0.47;;;10.80;99.90;;;;;;5065735;28;20033;-74
2022/02/11 14:51:34;;;;;;;1.65;0.40;;;10.90;99.90;;;;;;5065657;28;20029;-75
2022/02/11 14:54:05;;;;;;;1.17;0.57;;;11.00;99.90;;;;;;5065435;28;20045;-73
2022/02/11 14:56:31;;;;;;;1.48;0.47;;;10.80;99.90;;;;;;5047760;28;20491;-74
2022/02/11 14:58:57;;;;;;;1.00;0.57;;;11.10;99.90;;;;;;5065468;28;20029;-74
2022/02/11 15:01:23;;;;;;;2.33;1.05;;;11.40;99.90;;;;;;5047976;28;20106;-74
2022/02/11 15:03:49;;;;;;;0.43;0.20;;;11.40;99.90;;;;;;5065762;28;20024;-74
2022/02/11 15:06:15;;;;;;;1.58;0.65;;;11.10;99.90;;;;;;5091316;28;20061;-75
2022/02/11 15:08:40;;;;;;;2.15;0.75;;;10.80;99.90;;;;;;5095663;28;20040;-74
2022/02/11 15:11:06;;;;;;;5.40;1.20;;;10.10;99.90;;;;;;5082901;28;20041;-74
2022/02/11 15:13:32;;;;;;;3.08;0.90;;;9.30;99.90;;;;;;5076065;28;20025;-75
2022/02/11 15:15:57;;;;;;;4.13;0.90;;;8.80;99.90;;;;;;5065185;28;20086;-75
2022/02/11 15:18:23;;;;;;;5.88;0.45;;;8.20;99.90;;;;;;5076202;28;20040;-73
2022/02/11 15:20:53;;;;;;;1.98;0.57;;;7.80;99.90;;;;;;5070013;28;20083;-74
2022/02/11 15:23:20;;;;;;;12.70;0.95;;;7.40;99.90;;;;;;5073371;28;20037;-75
2022/02/11 15:25:48;;;;;;;10.68;1.27;;;7.10;99.90;;;;;;5057771;28;20025;-72
2022/02/11 15:28:14;;;;;;;0.98;0.40;;;6.90;99.90;;;;;;5074926;28;20549;-73
2022/02/11 15:30:40;;;;;;;7.63;1.02;;;6.70;99.90;;;;;;5079500;28;20029;-72
2022/02/11 15:33:06;;;;;;;3.38;0.70;;;6.50;99.90;;;;;;5075225;28;20028;-72
2022/02/11 15:35:32;;;;;;;5.15;0.88;;;6.30;99.90;;;;;;5081666;28;20049;-75
2022/02/11 15:37:58;;;;;;;3.78;0.80;;;6.10;99.90;;;;;;5063786;28;20025;-72
2022/02/11 15:40:27;;;;;;;10.30;1.88;;;5.90;99.90;;;;;;5084327;28;20036;-73
2022/02/11 15:42:54;;;;;;;3.10;0.63;;;5.90;99.90;;;;;;5083073;28;20043;-72
2022/02/11 15:45:21;;;;;;;0.80;0.55;;;5.70;99.90;;;;;;5078347;28;20115;-72
2022/02/11 15:47:51;;;;;;;5.07;1.17;;;5.60;99.90;;;;;;5084978;28;20080;-73
2022/02/11 15:50:17;;;;;;;1.90;0.93;;;5.60;99.90;;;;;;5084592;28;20039;-74
2022/02/11 15:52:43;;;;;;;2.92;1.00;;;5.50;99.90;;;;;;5065498;28;20066;-73
2022/02/11 15:55:10;;;;;;;1.67;0.95;;;5.50;99.90;;;;;;5082908;28;20044;-73
2022/02/11 15:57:36;;;;;;;17.13;1.50;;;5.30;99.90;;;;;;5069414;28;20050;-74
2022/02/11 16:00:04;;;;;;;4.75;1.20;;;5.20;99.90;;;;;;5089064;28;20452;-72
2022/02/11 16:02:31;;;;;;;7.38;1.38;;;5.20;99.90;;;;;;5056666;28;20048;-73
2022/02/11 16:04:56;;;;;;;2.97;0.93;;;5.20;99.90;;;;;;5080473;28;20036;-73
2022/02/11 16:07:23;;;;;;;9.98;0.73;;;5.20;99.90;;;;;;5079902;28;20096;-73
2022/02/11 16:09:50;;;;;;;5.55;0.63;;;5.20;99.90;;;;;;5082097;28;20545;-74
2022/02/11 16:12:15;;;;;;;1.80;0.30;;;5.20;99.90;;;;;;5080577;28;20435;-73
2022/02/11 16:14:41;;;;;;;13.10;1.15;;;5.20;99.90;;;;;;5078001;28;20040;-73
2022/02/11 16:17:11;;;;;;;0.90;0.60;;;5.30;99.90;;;;;;5070356;28;20039;-74
2022/02/11 16:19:37;;;;;;;4.82;1.00;;;5.20;99.90;;;;;;5062774;28;20448;-74
2022/02/11 16:22:04;;;;;;;4.32;1.15;;;5.20;99.90;;;;;;5070932;28;20028;-74
2022/02/11 16:24:30;;;;;;;10.57;1.23;;;5.10;99.90;;;;;;5088367;28;20063;-73
2022/02/11 16:26:56;;;;;;;3.03;1.02;;;5.10;99.90;;;;;;5088445;28;20035;-73
2022/02/11 16:29:22;;;;;;;7.55;0.98;;;5.10;99.90;;;;;;5088332;28;20063;-73
2022/02/11 16:31:49;;;;;;;7.22;0.77;;;5.00;99.90;;;;;;5082197;28;20095;-75
2022/02/11 16:34:17;;;;;;;20.70;2.35;;;5.00;99.90;;;;;;5066794;28;20381;-73
2022/02/11 16:36:44;;;;;;;7.95;1.50;;;5.00;99.90;;;;;;5078721;28;20054;-74
2022/02/11 16:39:11;;;;;;;4.57;0.95;;;5.10;99.90;;;;;;5065917;28;20124;-73
2022/02/11 16:41:37;;;;;;;2.85;1.02;;;5.00;99.90;;;;;;5075392;28;20052;-73
2022/02/11 16:44:04;;;;;;;8.30;0.73;;;5.00;99.90;;;;;;5086678;28;20044;-74
2022/02/11 16:46:30;;;;;;;7.43;1.10;;;5.10;99.90;;;;;;5087167;28;20047;-75
2022/02/11 16:48:55;;;;;;;3.20;0.75;;;5.20;99.90;;;;;;5066355;28;20025;-76